Time;durP1;ratioP1;P1;durP2;ratioP2;P2;SDS_P1;SDS_P2;PMS_P1;PMS_P2;Temp;Humidity;BMP_temperature;BMP_pressure;BME280_temperature;BME280_humidity;BME280_pressure;Samples;Min_cycle;Max_cycle;Signal;HPM_P1;HPM_P2
2022/07/04 00:01:23;;;;;;;3.33;1.30;;;16.80;99.90;;;;;;5027337;28;20988;-74
2022/07/04 00:03:50;;;;;;;3.83;1.67;;;16.80;99.90;;;;;;5025857;28;20838;-73
2022/07/04 00:06:17;;;;;;;2.27;1.77;;;16.90;99.90;;;;;;5024994;28;20472;-72
2022/07/04 00:08:46;;;;;;;2.53;1.20;;;17.10;99.90;;;;;;5031608;28;20512;-74
2022/07/04 00:11:13;;;;;;;1.93;1.20;;;17.20;99.90;;;;;;5023326;28;20543;-74
2022/07/04 00:13:40;;;;;;;3.40;1.20;;;17.10;99.90;;;;;;5029195;28;20460;-72
2022/07/04 00:16:06;;;;;;;2.20;1.37;;;17.20;99.90;;;;;;5033141;28;20455;-72
2022/07/04 00:18:34;;;;;;;1.53;1.20;;;17.10;99.90;;;;;;5028086;28;21018;-72
2022/07/04 00:21:01;;;;;;;1.77;1.40;;;17.00;99.90;;;;;;5028008;28;20430;-74
2022/07/04 00:23:28;;;;;;;2.37;1.10;;;16.80;99.90;;;;;;5016054;28;20469;-74
2022/07/04 00:25:56;;;;;;;1.60;1.40;;;16.90;99.90;;;;;;5023897;28;20460;-74
2022/07/04 00:28:23;;;;;;;1.40;1.30;;;16.90;99.90;;;;;;5015586;28;20780;-72
2022/07/04 00:30:49;;;;;;;3.03;1.23;;;16.90;99.90;;;;;;5019553;28;20471;-72
2022/07/04 00:33:16;;;;;;;1.30;1.03;;;17.10;99.90;;;;;;5023933;28;20480;-71
2022/07/04 00:35:43;;;;;;;1.43;1.10;;;17.30;99.90;;;;;;5021490;28;20454;-74
2022/07/04 00:38:10;;;;;;;1.70;1.20;;;17.40;99.90;;;;;;5015011;28;20437;-72
2022/07/04 00:40:38;;;;;;;1.97;1.40;;;17.40;99.90;;;;;;5029775;28;20568;-71
2022/07/04 00:43:06;;;;;;;2.47;1.50;;;17.40;99.90;;;;;;5027957;28;20460;-71
2022/07/04 00:45:33;;;;;;;1.90;1.70;;;17.30;99.90;;;;;;5025073;28;22944;-72
2022/07/04 00:48:00;;;;;;;6.10;1.97;;;17.10;99.90;;;;;;5014479;28;20460;-75
2022/07/04 00:50:27;;;;;;;1.80;1.07;;;17.10;99.90;;;;;;5014786;28;21538;-72
2022/07/04 00:52:55;;;;;;;1.47;1.37;;;17.10;99.90;;;;;;5017538;28;20527;-76
2022/07/04 00:55:23;;;;;;;1.70;1.10;;;16.90;99.90;;;;;;5019243;28;20446;-72
2022/07/04 00:57:50;;;;;;;2.90;1.20;;;16.90;99.90;;;;;;5025721;28;20996;-74
2022/07/04 01:00:19;;;;;;;1.80;1.43;;;16.90;99.90;;;;;;5026779;28;20499;-74
2022/07/04 01:02:47;;;;;;;3.27;1.20;;;17.00;99.90;;;;;;5013846;28;20490;-74
2022/07/04 01:05:15;;;;;;;1.43;1.10;;;16.70;99.90;;;;;;5018614;28;20438;-72
2022/07/04 01:07:43;;;;;;;1.60;1.20;;;16.60;99.90;;;;;;5025300;28;20478;-73
2022/07/04 01:10:10;;;;;;;1.93;1.60;;;16.70;99.90;;;;;;5014625;28;20469;-72
2022/07/04 01:12:38;;;;;;;2.30;1.40;;;16.60;99.90;;;;;;5016278;28;20866;-72
2022/07/04 01:15:06;;;;;;;1.50;1.40;;;16.80;99.90;;;;;;5019984;28;22564;-73
2022/07/04 01:17:34;;;;;;;1.50;1.13;;;16.80;99.90;;;;;;5016758;28;20477;-74
2022/07/04 01:20:01;;;;;;;1.83;1.00;;;16.90;99.90;;;;;;5016817;28;20447;-73
2022/07/04 01:22:29;;;;;;;1.50;1.27;;;16.80;99.90;;;;;;5016385;28;20487;-73
2022/07/04 01:24:56;;;;;;;3.10;1.47;;;16.60;99.90;;;;;;5028386;28;20856;-73
2022/07/04 01:27:23;;;;;;;1.67;1.10;;;16.60;99.90;;;;;;5024394;28;20473;-74
2022/07/04 01:29:50;;;;;;;3.10;1.40;;;16.50;99.90;;;;;;5025534;28;20489;-73
2022/07/04 01:32:17;;;;;;;2.50;1.60;;;16.40;99.90;;;;;;5029977;28;20476;-73
2022/07/04 01:34:44;;;;;;;1.47;1.20;;;16.50;99.90;;;;;;5028899;28;20498;-73
2022/07/04 01:37:11;;;;;;;2.50;1.70;;;16.60;99.90;;;;;;5025074;28;20454;-73
2022/07/04 01:39:39;;;;;;;5.57;1.20;;;16.60;99.90;;;;;;5021751;28;20924;-74
2022/07/04 01:42:06;;;;;;;9.70;2.53;;;16.70;99.90;;;;;;5018423;28;20461;-74
2022/07/04 01:44:33;;;;;;;2.90;2.00;;;16.70;99.90;;;;;;5023689;28;20441;-73
2022/07/04 01:47:03;;;;;;;1.87;1.47;;;16.60;99.90;;;;;;5021914;28;20482;-74
2022/07/04 01:49:30;;;;;;;3.57;1.50;;;16.40;99.90;;;;;;5009495;28;20480;-73
2022/07/04 01:51:57;;;;;;;3.80;1.97;;;16.30;99.90;;;;;;5025203;28;20475;-73
2022/07/04 01:54:24;;;;;;;3.47;1.90;;;16.10;99.90;;;;;;5016802;28;21173;-73
2022/07/04 01:56:53;;;;;;;2.70;1.33;;;16.00;99.90;;;;;;5018120;28;20484;-73
2022/07/04 02:01:29;;;;;;;2.83;1.90;;;16.10;99.90;;;;;;5017328;28;20455;-73
2022/07/04 02:02:06;;;;;;;2.13;1.70;;;16.20;99.90;;;;;;5014766;28;20555;-73
2022/07/04 02:04:33;;;;;;;3.10;1.60;;;16.10;99.90;;;;;;5011134;28;20925;-73
2022/07/04 02:07:01;;;;;;;1.93;1.50;;;15.80;99.90;;;;;;5014888;28;20757;-73
2022/07/04 02:09:28;;;;;;;2.40;1.80;;;15.60;99.90;;;;;;5026936;28;20994;-73
2022/07/04 02:14:41;;;;;;;1.70;1.60;;;15.70;99.90;;;;;;5028523;28;20465;-73
2022/07/04 02:17:08;;;;;;;2.20;1.50;;;15.70;99.90;;;;;;5021127;28;20437;-74
2022/07/04 02:19:35;;;;;;;4.97;1.60;;;15.60;99.90;;;;;;5016070;28;20972;-73
2022/07/04 02:22:04;;;;;;;2.37;2.17;;;15.50;99.90;;;;;;5023322;28;20463;-73
2022/07/04 02:24:31;;;;;;;2.53;1.67;;;15.40;99.90;;;;;;5023678;28;20464;-73
2022/07/04 02:26:59;;;;;;;2.90;2.13;;;15.40;99.90;;;;;;5024879;28;20454;-73
2022/07/04 02:29:26;;;;;;;2.40;1.77;;;15.60;99.90;;;;;;5016523;28;20480;-74
2022/07/04 02:31:53;;;;;;;2.17;1.97;;;15.60;99.90;;;;;;5028677;28;20458;-73
2022/07/04 02:34:20;;;;;;;1.80;1.67;;;15.60;99.90;;;;;;5012155;28;21875;-74
2022/07/04 02:36:46;;;;;;;4.30;1.73;;;15.50;99.90;;;;;;5019874;28;20480;-73
2022/07/04 02:39:13;;;;;;;3.17;2.87;;;15.40;99.90;;;;;;5016714;28;20484;-74
2022/07/04 02:41:40;;;;;;;2.40;1.60;;;15.50;99.90;;;;;;5026810;28;20505;-73
2022/07/04 02:44:09;;;;;;;2.00;1.53;;;15.60;99.90;;;;;;5027628;28;20452;-73
2022/07/04 02:46:36;;;;;;;2.43;1.80;;;15.60;99.90;;;;;;5029643;28;20460;-72
2022/07/04 02:49:04;;;;;;;2.57;1.77;;;15.40;99.90;;;;;;5027774;28;20987;-72
2022/07/04 02:51:31;;;;;;;5.53;2.20;;;15.60;99.90;;;;;;5017868;28;20463;-72
2022/07/04 02:53:58;;;;;;;3.10;1.80;;;15.50;99.90;;;;;;5022580;28;20485;-72
2022/07/04 02:56:25;;;;;;;1.70;1.50;;;15.60;99.90;;;;;;5017313;28;21596;-72
2022/07/04 02:58:52;;;;;;;9.27;2.20;;;15.60;99.90;;;;;;5019083;28;20495;-72
2022/07/04 03:01:20;;;;;;;2.30;1.87;;;15.50;99.90;;;;;;5021003;28;20456;-72
2022/07/04 03:03:48;;;;;;;4.90;2.00;;;15.70;99.90;;;;;;5016935;28;20475;-72
2022/07/04 03:06:15;;;;;;;2.50;2.10;;;15.80;99.90;;;;;;5024459;28;20465;-75
2022/07/04 03:08:42;;;;;;;3.07;2.23;;;15.80;99.90;;;;;;5017738;28;20577;-74
2022/07/04 03:11:10;;;;;;;2.70;2.40;;;15.80;99.90;;;;;;5020899;28;20457;-73
2022/07/04 03:13:37;;;;;;;3.33;2.00;;;15.70;99.90;;;;;;5013436;28;20463;-74
2022/07/04 03:16:04;;;;;;;2.50;1.97;;;15.60;99.90;;;;;;5024864;28;20590;-75
2022/07/04 03:18:32;;;;;;;3.40;2.70;;;15.60;99.90;;;;;;5000887;28;20483;-71
2022/07/04 03:20:59;;;;;;;3.87;1.73;;;15.40;99.90;;;;;;5012772;28;20490;-74
2022/07/04 03:23:26;;;;;;;6.20;2.00;;;15.10;99.90;;;;;;5019359;28;20465;-72
2022/07/04 03:25:53;;;;;;;5.33;2.10;;;15.00;99.90;;;;;;5018496;28;20797;-72
2022/07/04 03:28:19;;;;;;;2.80;2.03;;;15.10;99.90;;;;;;5022401;28;20514;-72
2022/07/04 03:30:46;;;;;;;3.10;1.97;;;15.00;99.90;;;;;;5030845;28;20819;-72
2022/07/04 03:33:13;;;;;;;3.80;2.17;;;15.10;99.90;;;;;;5026440;28;20457;-72
2022/07/04 03:35:41;;;;;;;3.33;1.90;;;15.30;99.90;;;;;;5027322;28;20487;-72
2022/07/04 03:38:08;;;;;;;3.30;1.97;;;15.60;99.90;;;;;;5029620;28;20490;-73
2022/07/04 03:40:35;;;;;;;3.50;2.13;;;15.40;99.90;;;;;;5021608;28;20484;-72
2022/07/04 03:43:03;;;;;;;5.13;1.93;;;15.20;99.90;;;;;;5032712;28;20455;-72
2022/07/04 03:45:30;;;;;;;8.30;2.60;;;15.20;99.90;;;;;;5032768;28;20810;-73
2022/07/04 03:47:57;;;;;;;2.87;1.97;;;15.40;99.90;;;;;;5021332;28;20444;-72
2022/07/04 03:50:24;;;;;;;2.93;2.07;;;15.50;99.90;;;;;;5020330;28;21226;-73
2022/07/04 03:52:52;;;;;;;5.17;2.33;;;15.50;99.90;;;;;;5012394;28;20430;-72
2022/07/04 03:55:19;;;;;;;2.30;1.90;;;15.60;99.90;;;;;;5021111;28;20434;-72
2022/07/04 03:57:46;;;;;;;6.03;2.40;;;15.70;99.90;;;;;;5028789;28;20548;-72
2022/07/04 04:00:14;;;;;;;5.17;2.40;;;15.60;99.90;;;;;;5032834;28;20459;-72
2022/07/04 04:02:41;;;;;;;4.23;2.57;;;15.60;99.90;;;;;;5024117;28;20460;-72
2022/07/04 04:07:55;;;;;;;4.87;2.33;;;15.80;99.90;;;;;;5031070;28;20455;-73
2022/07/04 04:10:22;;;;;;;5.83;2.03;;;15.80;99.90;;;;;;5021307;28;20599;-71
2022/07/04 04:12:49;;;;;;;2.00;1.80;;;15.90;99.90;;;;;;5024367;28;21106;-75
2022/07/04 04:15:16;;;;;;;4.30;1.97;;;15.80;99.90;;;;;;5019145;28;20564;-71
2022/07/04 04:17:43;;;;;;;4.17;2.30;;;15.80;99.90;;;;;;5022463;28;21130;-72
2022/07/04 04:20:10;;;;;;;6.50;2.53;;;15.70;99.90;;;;;;5026574;28;20483;-72
2022/07/04 04:22:38;;;;;;;3.37;2.33;;;15.90;99.90;;;;;;5027070;28;23399;-71
2022/07/04 04:25:07;;;;;;;2.60;2.10;;;15.90;99.90;;;;;;5029351;28;20922;-72
2022/07/04 04:27:34;;;;;;;11.93;2.80;;;15.80;99.90;;;;;;5029968;28;20460;-71
2022/07/04 04:30:01;;;;;;;3.70;2.17;;;15.70;99.90;;;;;;5024723;28;20485;-72
2022/07/04 04:32:28;;;;;;;2.73;2.37;;;15.90;99.90;;;;;;5023934;28;20465;-73
2022/07/04 04:34:55;;;;;;;4.90;3.40;;;15.90;99.90;;;;;;5034152;28;20550;-73
2022/07/04 04:37:22;;;;;;;2.13;1.93;;;16.00;99.90;;;;;;5026998;28;21162;-73
2022/07/04 04:39:49;;;;;;;13.63;3.97;;;16.10;99.90;;;;;;5017571;28;20455;-72
2022/07/04 04:42:17;;;;;;;3.90;3.00;;;16.20;99.90;;;;;;5018353;28;20464;-72
2022/07/04 04:44:44;;;;;;;3.07;1.90;;;16.20;99.90;;;;;;5027174;28;20456;-72
2022/07/04 04:47:11;;;;;;;3.00;1.90;;;16.30;99.90;;;;;;5028362;28;20461;-72
2022/07/04 04:49:38;;;;;;;3.00;2.00;;;16.30;99.90;;;;;;5040486;28;20947;-72
2022/07/04 04:52:05;;;;;;;6.63;3.10;;;16.30;99.90;;;;;;5022251;28;20833;-72
2022/07/04 04:54:32;;;;;;;3.03;2.73;;;16.50;99.90;;;;;;5036782;28;20553;-72
2022/07/04 04:56:59;;;;;;;3.27;2.70;;;16.70;99.90;;;;;;5036889;28;20573;-73
2022/07/04 04:59:29;;;;;;;2.50;2.30;;;16.90;99.90;;;;;;5027792;28;20521;-72
2022/07/04 05:01:56;;;;;;;8.37;4.20;;;17.10;99.90;;;;;;5026321;28;20466;-73
2022/07/04 05:04:23;;;;;;;3.33;2.50;;;17.20;99.90;;;;;;5033598;28;20457;-72
2022/07/04 05:06:50;;;;;;;3.40;2.43;;;17.20;99.90;;;;;;5028141;28;20460;-72
2022/07/04 05:09:17;;;;;;;7.60;3.03;;;17.50;99.90;;;;;;5034869;28;20467;-72
2022/07/04 05:11:44;;;;;;;5.80;2.90;;;17.50;99.90;;;;;;5025692;28;20474;-72
2022/07/04 05:14:10;;;;;;;4.57;2.90;;;17.70;99.90;;;;;;5022886;28;20462;-73
2022/07/04 05:16:39;;;;;;;8.63;3.60;;;17.70;99.90;;;;;;5038724;28;20596;-77
2022/07/04 05:19:06;;;;;;;5.20;3.40;;;17.80;99.90;;;;;;5034997;28;20488;-74
2022/07/04 05:21:33;;;;;;;4.50;3.20;;;17.90;99.90;;;;;;5019258;28;20968;-74
2022/07/04 05:24:00;;;;;;;6.00;4.20;;;18.10;99.90;;;;;;5032489;28;20473;-74
2022/07/04 05:26:27;;;;;;;4.90;3.73;;;18.40;99.90;;;;;;5024346;28;20835;-74
2022/07/04 05:28:55;;;;;;;5.50;2.90;;;18.60;99.90;;;;;;5029252;28;20848;-74
2022/07/04 05:31:24;;;;;;;5.37;4.00;;;18.70;99.90;;;;;;5037627;28;20976;-74
2022/07/04 05:33:52;;;;;;;4.20;3.30;;;18.90;99.90;;;;;;5036256;28;20846;-75
2022/07/04 05:36:20;;;;;;;5.40;3.70;;;19.20;99.90;;;;;;5022015;28;20514;-74
2022/07/04 05:38:47;;;;;;;3.50;3.10;;;19.40;99.90;;;;;;5034672;28;20492;-74
2022/07/04 05:41:14;;;;;;;5.60;2.97;;;19.40;99.90;;;;;;5031335;28;21202;-74
2022/07/04 05:43:41;;;;;;;4.07;2.73;;;19.80;99.90;;;;;;5032237;28;20471;-75
2022/07/04 05:46:08;;;;;;;3.50;2.70;;;20.40;99.90;;;;;;5031107;28;20949;-74
2022/07/04 05:48:35;;;;;;;5.40;3.50;;;20.80;99.90;;;;;;5034623;28;20479;-72
2022/07/04 05:51:03;;;;;;;10.33;3.83;;;21.10;99.90;;;;;;5039987;28;20514;-71
2022/07/04 05:53:30;;;;;;;10.53;3.70;;;21.50;99.90;;;;;;5037829;28;20452;-71
2022/07/04 05:55:57;;;;;;;13.13;3.70;;;21.60;99.90;;;;;;5037181;28;21525;-72
2022/07/04 05:58:24;;;;;;;8.13;4.10;;;21.80;99.90;;;;;;5027879;28;20488;-73
2022/07/04 06:00:51;;;;;;;6.50;4.40;;;21.70;99.90;;;;;;5037647;28;20467;-72
2022/07/04 06:03:18;;;;;;;3.33;3.00;;;21.90;99.90;;;;;;5034288;28;20479;-72
2022/07/04 06:05:44;;;;;;;6.07;4.10;;;21.80;99.90;;;;;;5041002;28;20467;-72
2022/07/04 06:08:13;;;;;;;5.40;2.40;;;22.10;99.90;;;;;;5037504;28;20443;-72
2022/07/04 06:10:40;;;;;;;8.60;3.27;;;22.20;99.90;;;;;;5029531;28;20543;-73
2022/07/04 06:13:07;;;;;;;5.50;3.50;;;22.00;99.90;;;;;;5033918;28;20970;-72
2022/07/04 06:15:34;;;;;;;5.40;3.30;;;21.90;99.90;;;;;;5032680;28;20555;-73
2022/07/04 06:18:02;;;;;;;3.57;2.83;;;22.20;99.90;;;;;;5035294;28;23317;-72
2022/07/04 06:20:29;;;;;;;4.33;3.33;;;22.50;99.90;;;;;;5045963;28;20583;-72
2022/07/04 06:22:57;;;;;;;4.20;2.53;;;22.50;99.90;;;;;;5040232;28;20544;-72
2022/07/04 06:25:25;;;;;;;5.73;2.63;;;23.00;99.90;;;;;;5038665;28;21995;-72
2022/07/04 06:27:52;;;;;;;6.37;2.93;;;23.10;99.90;;;;;;5042713;28;20439;-72
2022/07/04 06:30:20;;;;;;;3.47;2.50;;;23.30;99.90;;;;;;5041597;28;20904;-73
2022/07/04 06:32:48;;;;;;;3.90;2.23;;;23.70;99.90;;;;;;5035560;28;20463;-73
2022/07/04 06:38:02;;;;;;;2.50;1.80;;;23.60;99.90;;;;;;5033951;28;20609;-73
2022/07/04 06:40:30;;;;;;;3.60;2.53;;;23.70;99.90;;;;;;5035898;28;20468;-72
2022/07/04 06:42:57;;;;;;;2.80;2.30;;;23.80;99.90;;;;;;5033162;28;20465;-73
2022/07/04 06:45:24;;;;;;;3.83;2.40;;;23.20;99.90;;;;;;5027618;28;20744;-73
2022/07/04 06:47:51;;;;;;;3.17;2.07;;;23.50;99.90;;;;;;5028277;28;20460;-73
2022/07/04 06:50:19;;;;;;;5.20;2.30;;;23.80;99.90;;;;;;5041120;28;20488;-73
2022/07/04 06:52:46;;;;;;;2.90;1.80;;;23.60;99.90;;;;;;5046193;28;20510;-73
2022/07/04 06:55:13;;;;;;;5.00;2.20;;;24.10;99.90;;;;;;5041186;28;20455;-73
2022/07/04 06:57:41;;;;;;;4.63;2.40;;;24.70;99.90;;;;;;5046432;28;20479;-73
2022/07/04 07:00:10;;;;;;;7.23;2.90;;;24.80;99.90;;;;;;5039921;28;20468;-73
2022/07/04 07:02:37;;;;;;;3.90;2.50;;;24.90;99.90;;;;;;5033219;28;20538;-74
2022/07/04 07:05:05;;;;;;;5.23;3.07;;;24.80;99.90;;;;;;5037761;28;20449;-74
2022/07/04 07:07:32;;;;;;;4.03;2.50;;;25.00;99.90;;;;;;5040495;28;20460;-73
2022/07/04 07:09:59;;;;;;;7.00;2.73;;;24.70;99.90;;;;;;5038163;28;20487;-73
2022/07/04 07:12:25;;;;;;;4.13;2.13;;;24.40;99.90;;;;;;5036418;28;20478;-74
2022/07/04 07:14:54;;;;;;;6.23;1.87;;;24.80;99.90;;;;;;5039666;28;20456;-73
2022/07/04 07:17:21;;;;;;;3.97;2.43;;;25.40;99.90;;;;;;5042472;28;20476;-73
2022/07/04 07:19:48;;;;;;;7.73;3.10;;;25.60;99.90;;;;;;5039685;28;20488;-73
2022/07/04 07:22:16;;;;;;;5.93;2.87;;;25.10;99.90;;;;;;5034134;28;20491;-74
2022/07/04 07:24:43;;;;;;;6.57;3.00;;;25.10;99.90;;;;;;5046145;28;20494;-74
2022/07/04 07:27:10;;;;;;;6.37;3.03;;;25.00;99.90;;;;;;5036958;28;20459;-74
2022/07/04 07:29:38;;;;;;;3.80;2.00;;;25.30;99.90;;;;;;5036580;28;21212;-74
2022/07/04 07:32:07;;;;;;;3.93;2.43;;;25.80;99.90;;;;;;5036747;28;20456;-73
2022/07/04 07:34:35;;;;;;;2.90;1.70;;;26.40;99.90;;;;;;5036597;28;20451;-73
2022/07/04 07:37:01;;;;;;;2.27;1.47;;;26.60;99.70;;;;;;5036100;28;27938;-74
2022/07/04 07:39:28;;;;;;;2.70;1.73;;;26.50;98.60;;;;;;5027466;28;20499;-74
2022/07/04 07:41:55;;;;;;;2.10;1.10;;;26.40;98.30;;;;;;5029077;28;20463;-72
2022/07/04 07:44:22;;;;;;;6.37;1.33;;;26.90;96.90;;;;;;5027340;28;20460;-72
2022/07/04 07:46:49;;;;;;;1.97;1.30;;;27.10;94.60;;;;;;5029840;28;20467;-73
2022/07/04 07:49:17;;;;;;;2.60;1.90;;;26.80;95.30;;;;;;5027299;28;20498;-72
2022/07/04 07:51:44;;;;;;;3.00;1.63;;;27.20;94.00;;;;;;5029507;28;20999;-73
2022/07/04 07:54:11;;;;;;;3.53;2.03;;;26.30;94.20;;;;;;5040827;28;20524;-72
2022/07/04 07:56:38;;;;;;;5.97;1.70;;;26.70;94.40;;;;;;5040572;28;20479;-72
2022/07/04 07:59:05;;;;;;;4.27;2.17;;;26.00;94.70;;;;;;5030875;28;20855;-72
2022/07/04 08:01:31;;;;;;;6.37;1.80;;;25.60;94.70;;;;;;5031974;28;20518;-74
2022/07/04 08:06:44;;;;;;;2.10;1.37;;;26.20;95.20;;;;;;5035167;28;20447;-74
2022/07/04 08:09:11;;;;;;;2.37;1.70;;;26.50;93.50;;;;;;5024994;28;20875;-73
2022/07/04 08:11:38;;;;;;;4.73;1.77;;;26.70;94.10;;;;;;5035305;28;20468;-74
2022/07/04 08:14:06;;;;;;;3.60;2.27;;;27.00;94.30;;;;;;5023441;28;21016;-74
2022/07/04 08:16:33;;;;;;;7.50;3.13;;;28.10;93.70;;;;;;5031458;28;20461;-73
2022/07/04 08:19:00;;;;;;;3.50;2.03;;;28.10;92.10;;;;;;5043883;28;20472;-73
2022/07/04 08:21:27;;;;;;;6.27;2.37;;;28.40;89.90;;;;;;5042577;28;20460;-74
2022/07/04 08:23:55;;;;;;;6.00;3.10;;;28.60;89.00;;;;;;5034500;28;20565;-74
2022/07/04 08:26:22;;;;;;;3.70;2.77;;;27.50;91.00;;;;;;5034066;28;20455;-74
2022/07/04 08:28:51;;;;;;;4.20;2.07;;;27.50;92.60;;;;;;5026408;28;20484;-74
2022/07/04 08:31:21;;;;;;;3.03;2.00;;;28.40;90.10;;;;;;5036318;28;20456;-74
2022/07/04 08:33:48;;;;;;;1.80;1.50;;;28.60;86.40;;;;;;5038180;28;20507;-74
2022/07/04 08:36:15;;;;;;;4.37;1.63;;;28.10;88.10;;;;;;5031156;28;20460;-74
2022/07/04 08:38:41;;;;;;;6.80;2.00;;;28.00;87.10;;;;;;5024511;28;20566;-74
2022/07/04 08:41:10;;;;;;;5.87;2.47;;;28.50;88.30;;;;;;5028419;28;20465;-73
2022/07/04 08:43:37;;;;;;;5.53;2.27;;;28.60;84.70;;;;;;5036011;28;20453;-74
2022/07/04 08:46:05;;;;;;;7.60;1.90;;;28.30;83.90;;;;;;5029099;28;20710;-73
2022/07/04 08:48:33;;;;;;;3.23;2.07;;;28.50;84.90;;;;;;5033659;28;20882;-74
2022/07/04 08:51:10;;;;;;;3.07;1.60;;;29.10;85.00;;;;;;5033552;28;20461;-74
2022/07/04 08:53:40;;;;;;;2.00;1.53;;;29.60;80.10;;;;;;5039164;28;20481;-73
2022/07/04 08:59:06;;;;;;;4.93;1.50;;;28.60;82.10;;;;;;4995594;28;20482;-73
2022/07/04 09:01:34;;;;;;;11.87;3.40;;;28.30;78.80;;;;;;5032495;28;20519;-74
2022/07/04 09:04:02;;;;;;;1.60;1.10;;;28.70;82.00;;;;;;5033158;28;20833;-72
2022/07/04 09:06:29;;;;;;;3.47;1.60;;;29.20;80.80;;;;;;5031575;28;20463;-73
2022/07/04 09:08:56;;;;;;;5.50;3.00;;;29.50;78.50;;;;;;5032790;28;20856;-73
2022/07/04 09:11:23;;;;;;;1.93;1.37;;;30.00;74.00;;;;;;5024176;28;20452;-73
2022/07/04 09:13:49;;;;;;;1.50;1.40;;;30.00;72.80;;;;;;5028515;28;20471;-73
2022/07/04 09:16:18;;;;;;;3.53;1.67;;;30.30;74.20;;;;;;5033797;28;20457;-73
2022/07/04 09:18:44;;;;;;;3.53;1.60;;;30.40;72.60;;;;;;5033890;28;20487;-73
2022/07/04 09:21:11;;;;;;;7.63;2.10;;;31.00;71.30;;;;;;5035299;28;20466;-74
2022/07/04 09:23:41;;;;;;;2.83;1.20;;;31.70;68.60;;;;;;5029377;28;20468;-74
2022/07/04 09:26:11;;;;;;;7.33;1.67;;;30.80;67.80;;;;;;5039839;28;20987;-73
2022/07/04 09:28:39;;;;;;;3.20;1.70;;;30.00;71.80;;;;;;5026873;28;20483;-73
2022/07/04 09:31:22;;;;;;;2.33;1.60;;;30.00;70.80;;;;;;5033902;28;21276;-74
2022/07/04 09:33:52;;;;;;;1.80;1.20;;;30.10;68.70;;;;;;5039363;28;20444;-73
2022/07/04 09:36:21;;;;;;;1.43;1.07;;;29.10;68.10;;;;;;5037904;28;20550;-74
2022/07/04 09:39:09;;;;;;;3.30;1.30;;;29.80;69.60;;;;;;5033630;28;20495;-73
2022/07/04 09:41:55;;;;;;;2.13;1.27;;;29.90;68.90;;;;;;5034596;28;20463;-73
2022/07/04 09:44:22;;;;;;;3.20;1.70;;;30.80;68.00;;;;;;5025980;28;20966;-74
2022/07/04 09:46:51;;;;;;;3.03;2.00;;;31.30;64.90;;;;;;5035474;28;20456;-74
2022/07/04 09:49:18;;;;;;;2.93;1.50;;;31.00;66.00;;;;;;5023901;28;20475;-73
2022/07/04 09:51:47;;;;;;;2.03;1.70;;;30.70;64.80;;;;;;5029683;28;20837;-74
2022/07/04 09:54:16;;;;;;;2.47;1.80;;;31.30;66.30;;;;;;5029398;28;20975;-75
2022/07/04 09:56:44;;;;;;;2.83;1.70;;;32.00;62.00;;;;;;5037976;28;20465;-74
2022/07/04 09:59:11;;;;;;;3.43;1.77;;;32.00;62.40;;;;;;5039509;28;20491;-74
2022/07/04 10:01:39;;;;;;;1.97;1.03;;;32.30;60.30;;;;;;5036133;28;20458;-74
2022/07/04 10:04:08;;;;;;;2.30;1.37;;;32.80;59.70;;;;;;5030676;28;20470;-74
2022/07/04 10:06:35;;;;;;;3.33;1.27;;;32.60;59.10;;;;;;5034696;28;20561;-72
2022/07/04 10:09:09;;;;;;;3.87;1.43;;;32.10;59.00;;;;;;5024765;28;20476;-72
2022/07/04 10:11:38;;;;;;;7.13;2.60;;;31.60;61.00;;;;;;5057701;23;20599;-69
2022/07/04 10:14:07;;;;;;;1.67;1.10;;;31.90;59.60;;;;;;5078362;28;20454;-69
2022/07/04 10:16:34;;;;;;;2.80;1.63;;;31.10;60.60;;;;;;5081057;28;20547;-69
2022/07/04 10:19:01;;;;;;;6.20;2.13;;;30.70;60.00;;;;;;5072510;28;20479;-69
2022/07/04 10:21:30;;;;;;;1.90;1.10;;;30.50;59.40;;;;;;5070789;28;20483;-69
2022/07/04 10:23:57;;;;;;;4.37;1.50;;;31.10;61.00;;;;;;5051614;28;20464;-69
2022/07/04 10:26:24;;;;;;;2.40;1.30;;;31.20;60.20;;;;;;5044621;28;20452;-69
2022/07/04 10:28:52;;;;;;;3.00;1.30;;;31.40;61.20;;;;;;5060302;28;20459;-69
2022/07/04 10:31:21;;;;;;;2.60;1.17;;;32.20;59.50;;;;;;5055433;28;20694;-68
2022/07/04 10:33:48;;;;;;;2.37;1.60;;;33.00;57.10;;;;;;5062359;28;20571;-69
2022/07/04 10:36:17;;;;;;;4.57;1.40;;;31.40;57.40;;;;;;5062146;28;20451;-69
2022/07/04 10:38:50;;;;;;;3.53;1.43;;;30.20;60.10;;;;;;5048359;28;20483;-69
2022/07/04 10:41:19;;;;;;;2.07;1.17;;;30.20;59.30;;;;;;5055246;28;20471;-69
2022/07/04 10:44:02;;;;;;;2.53;1.30;;;28.60;62.60;;;;;;5063117;28;20450;-70
2022/07/04 10:46:49;;;;;;;1.37;1.20;;;27.80;61.40;;;;;;5054598;28;20447;-70
2022/07/04 10:49:27;;;;;;;3.00;1.80;;;28.70;62.60;;;;;;5055597;28;20522;-70
2022/07/04 10:51:57;;;;;;;3.37;1.57;;;30.60;61.30;;;;;;5054272;28;21095;-68
2022/07/04 10:54:31;;;;;;;3.47;2.13;;;31.40;58.40;;;;;;5051981;28;20947;-69
2022/07/04 10:57:09;;;;;;;2.93;1.60;;;30.00;58.80;;;;;;5041159;28;20525;-68
2022/07/04 10:59:36;;;;;;;3.20;1.40;;;29.60;62.10;;;;;;5057724;28;20984;-68
2022/07/04 11:02:23;;;;;;;3.47;1.50;;;31.30;59.60;;;;;;5058158;28;20578;-68
2022/07/04 11:04:58;;;;;;;3.17;1.30;;;31.80;57.80;;;;;;5055953;28;20463;-68
2022/07/04 11:07:59;;;;;;;2.07;1.53;;;32.90;56.50;;;;;;5057848;28;21094;-69
2022/07/04 11:10:27;;;;;;;4.60;1.43;;;34.00;56.40;;;;;;5062031;28;20485;-69
2022/07/04 11:13:18;;;;;;;3.00;1.50;;;34.10;53.50;;;;;;5057346;28;20705;-68
2022/07/04 11:16:08;;;;;;;2.30;1.33;;;33.20;53.80;;;;;;5045841;28;20453;-69
2022/07/04 11:18:43;;;;;;;3.80;1.33;;;33.00;54.00;;;;;;5053783;28;20474;-70
2022/07/04 11:21:21;;;;;;;3.07;2.00;;;33.60;52.50;;;;;;5049483;28;20487;-68
2022/07/04 11:23:52;;;;;;;1.90;1.10;;;34.10;51.00;;;;;;5052497;28;20510;-69
2022/07/04 11:26:22;;;;;;;2.13;1.30;;;32.80;53.30;;;;;;5067582;28;20458;-68
2022/07/04 11:28:49;;;;;;;2.90;1.40;;;31.10;54.50;;;;;;5064357;28;20443;-68
2022/07/04 11:31:16;;;;;;;1.70;1.50;;;29.90;55.90;;;;;;5057510;28;20583;-69
2022/07/04 11:33:44;;;;;;;2.07;1.37;;;29.60;55.00;;;;;;5053739;28;20473;-68
2022/07/04 11:36:14;;;;;;;1.73;1.60;;;29.60;55.70;;;;;;5059433;28;20482;-69
2022/07/04 11:38:55;;;;;;;3.33;1.40;;;28.70;57.30;;;;;;5057770;28;20491;-69
2022/07/04 11:47:04;;;;;;;2.97;1.30;;;30.30;58.30;;;;;;5063482;28;20440;-68
2022/07/04 11:49:31;;;;;;;2.37;1.73;;;29.30;59.50;;;;;;5054043;28;20835;-69
2022/07/04 11:51:58;;;;;;;1.87;1.77;;;29.00;58.40;;;;;;5052837;28;20480;-69
2022/07/04 11:54:25;;;;;;;2.43;1.20;;;28.30;59.50;;;;;;5058788;28;20464;-69
2022/07/04 11:56:53;;;;;;;1.73;1.13;;;27.80;59.00;;;;;;5064518;28;20455;-69
2022/07/04 11:59:20;;;;;;;3.30;1.40;;;27.30;59.90;;;;;;5060087;28;20861;-69
2022/07/04 12:01:47;;;;;;;2.90;1.30;;;28.30;59.40;;;;;;5063893;28;20900;-69
2022/07/04 12:04:17;;;;;;;1.60;1.33;;;29.00;56.50;;;;;;5060827;28;20458;-69
2022/07/04 12:06:45;;;;;;;2.53;1.33;;;29.30;58.10;;;;;;5048746;28;20464;-69
2022/07/04 12:09:12;;;;;;;2.67;1.40;;;29.50;56.60;;;;;;5055007;28;20450;-69
2022/07/04 12:11:54;;;;;;;2.60;1.30;;;29.20;57.30;;;;;;5058255;28;20485;-69
2022/07/04 12:14:22;;;;;;;2.27;1.20;;;28.40;57.90;;;;;;5052266;28;21484;-69
2022/07/04 12:16:48;;;;;;;2.47;1.30;;;28.00;59.50;;;;;;5056439;28;20557;-69
2022/07/04 12:19:15;;;;;;;4.63;1.77;;;27.60;59.20;;;;;;5047963;28;20498;-69
2022/07/04 12:21:43;;;;;;;7.03;1.70;;;27.50;60.50;;;;;;5061203;28;20475;-69
2022/07/04 12:24:10;;;;;;;2.93;2.63;;;27.30;61.10;;;;;;5060479;28;20485;-70
2022/07/04 12:26:46;;;;;;;3.50;1.50;;;28.80;59.60;;;;;;5050205;28;20466;-70
2022/07/04 12:29:21;;;;;;;1.50;1.10;;;29.10;59.40;;;;;;5058504;28;20455;-69
2022/07/04 12:31:52;;;;;;;4.90;1.60;;;28.90;59.50;;;;;;5061185;28;20486;-69
2022/07/04 12:34:20;;;;;;;2.03;1.27;;;28.20;58.90;;;;;;5054858;28;21057;-68
2022/07/04 12:36:51;;;;;;;3.80;1.33;;;27.40;59.50;;;;;;5057590;28;20474;-69
2022/07/04 12:39:34;;;;;;;2.00;1.37;;;27.80;61.40;;;;;;5052330;28;20851;-70
2022/07/04 12:42:11;;;;;;;1.40;1.10;;;28.30;60.40;;;;;;5049156;28;20484;-70
2022/07/04 12:44:41;;;;;;;1.67;1.30;;;28.50;61.20;;;;;;5053492;28;20450;-69
2022/07/04 12:47:09;;;;;;;1.50;1.30;;;28.50;60.00;;;;;;5053962;28;21035;-69
2022/07/04 12:49:36;;;;;;;1.70;1.20;;;27.90;61.40;;;;;;5057115;28;21004;-68
2022/07/04 12:52:08;;;;;;;4.50;2.17;;;27.80;61.00;;;;;;5057192;28;20475;-70
2022/07/04 12:54:36;;;;;;;2.10;1.07;;;27.60;61.30;;;;;;5056642;28;20490;-69
2022/07/04 12:57:12;;;;;;;2.80;2.00;;;28.30;62.40;;;;;;5058066;28;20460;-69
2022/07/04 12:59:41;;;;;;;2.80;1.60;;;29.90;59.80;;;;;;5059173;28;23395;-71
2022/07/04 13:02:08;;;;;;;2.80;1.40;;;31.10;57.60;;;;;;5059379;28;20464;-69
2022/07/04 13:04:36;;;;;;;2.13;1.60;;;29.70;58.60;;;;;;5057470;28;20835;-68
2022/07/04 13:07:14;;;;;;;3.07;1.30;;;28.90;59.70;;;;;;5062802;28;20443;-69
2022/07/04 13:09:42;;;;;;;1.77;1.50;;;29.60;59.40;;;;;;5062150;28;20458;-69
2022/07/04 13:12:28;;;;;;;1.80;1.20;;;29.80;58.80;;;;;;5058948;28;20574;-68